sensor_id;sensor_type;location;lat;lon;timestamp;P1;durP1;ratioP1;P2;durP2;ratioP2
4831;SDS011;2430;51.322;7.864;2023-08-24T00:00:55;7.40;;;5.20;;
4831;SDS011;2430;51.322;7.864;2023-08-24T00:03:22;5.63;;;4.70;;
4831;SDS011;2430;51.322;7.864;2023-08-24T00:05:51;11.80;;;5.20;;
4831;SDS011;2430;51.322;7.864;2023-08-24T00:08:18;7.03;;;5.40;;
4831;SDS011;2430;51.322;7.864;2023-08-24T00:10:45;11.67;;;4.80;;
4831;SDS011;2430;51.322;7.864;2023-08-24T00:13:12;6.17;;;4.87;;
4831;SDS011;2430;51.322;7.864;2023-08-24T00:15:40;6.40;;;4.77;;
4831;SDS011;2430;51.322;7.864;2023-08-24T00:18:06;8.03;;;4.57;;
4831;SDS011;2430;51.322;7.864;2023-08-24T00:20:33;7.10;;;5.30;;
4831;SDS011;2430;51.322;7.864;2023-08-24T00:23:00;9.93;;;4.63;;
4831;SDS011;2430;51.322;7.864;2023-08-24T00:25:26;12.80;;;5.83;;
4831;SDS011;2430;51.322;7.864;2023-08-24T00:27:53;6.13;;;5.50;;
4831;SDS011;2430;51.322;7.864;2023-08-24T00:30:19;8.67;;;5.87;;
4831;SDS011;2430;51.322;7.864;2023-08-24T00:32:47;9.70;;;5.43;;
4831;SDS011;2430;51.322;7.864;2023-08-24T00:35:14;7.17;;;4.70;;
4831;SDS011;2430;51.322;7.864;2023-08-24T00:37:41;8.23;;;5.17;;
4831;SDS011;2430;51.322;7.864;2023-08-24T00:40:11;6.50;;;4.80;;
4831;SDS011;2430;51.322;7.864;2023-08-24T00:42:38;9.93;;;4.87;;
4831;SDS011;2430;51.322;7.864;2023-08-24T00:45:09;8.03;;;5.33;;
4831;SDS011;2430;51.322;7.864;2023-08-24T00:47:36;8.83;;;4.70;;
4831;SDS011;2430;51.322;7.864;2023-08-24T00:50:05;5.40;;;4.57;;
4831;SDS011;2430;51.322;7.864;2023-08-24T00:52:36;5.83;;;5.10;;
4831;SDS011;2430;51.322;7.864;2023-08-24T00:55:04;8.10;;;5.10;;
4831;SDS011;2430;51.322;7.864;2023-08-24T00:57:33;7.97;;;4.70;;
4831;SDS011;2430;51.322;7.864;2023-08-24T01:00:02;8.57;;;5.10;;
4831;SDS011;2430;51.322;7.864;2023-08-24T01:02:30;8.77;;;4.70;;
4831;SDS011;2430;51.322;7.864;2023-08-24T01:04:57;11.73;;;5.17;;
4831;SDS011;2430;51.322;7.864;2023-08-24T01:07:25;9.00;;;4.90;;
4831;SDS011;2430;51.322;7.864;2023-08-24T01:09:52;6.50;;;5.00;;
4831;SDS011;2430;51.322;7.864;2023-08-24T01:12:20;7.07;;;5.13;;
4831;SDS011;2430;51.322;7.864;2023-08-24T01:14:54;9.00;;;5.00;;
4831;SDS011;2430;51.322;7.864;2023-08-24T01:17:24;5.83;;;4.87;;
4831;SDS011;2430;51.322;7.864;2023-08-24T01:19:52;9.47;;;5.50;;
4831;SDS011;2430;51.322;7.864;2023-08-24T01:22:23;8.00;;;5.73;;
4831;SDS011;2430;51.322;7.864;2023-08-24T01:24:58;6.73;;;5.30;;
4831;SDS011;2430;51.322;7.864;2023-08-24T01:27:30;8.20;;;4.70;;
4831;SDS011;2430;51.322;7.864;2023-08-24T01:29:57;7.77;;;5.20;;
4831;SDS011;2430;51.322;7.864;2023-08-24T01:32:25;11.50;;;5.60;;
4831;SDS011;2430;51.322;7.864;2023-08-24T01:34:52;12.60;;;5.30;;
4831;SDS011;2430;51.322;7.864;2023-08-24T01:37:19;11.40;;;6.13;;
4831;SDS011;2430;51.322;7.864;2023-08-24T01:39:48;7.17;;;4.93;;
4831;SDS011;2430;51.322;7.864;2023-08-24T01:42:17;8.33;;;5.00;;
4831;SDS011;2430;51.322;7.864;2023-08-24T01:44:47;16.57;;;5.27;;
4831;SDS011;2430;51.322;7.864;2023-08-24T01:47:15;8.03;;;4.73;;
4831;SDS011;2430;51.322;7.864;2023-08-24T01:49:42;8.70;;;5.20;;
4831;SDS011;2430;51.322;7.864;2023-08-24T01:52:12;9.43;;;5.43;;
4831;SDS011;2430;51.322;7.864;2023-08-24T01:54:40;7.70;;;4.90;;
4831;SDS011;2430;51.322;7.864;2023-08-24T01:57:07;10.50;;;4.83;;
4831;SDS011;2430;51.322;7.864;2023-08-24T01:59:34;6.33;;;5.17;;
4831;SDS011;2430;51.322;7.864;2023-08-24T02:02:02;6.77;;;4.60;;
4831;SDS011;2430;51.322;7.864;2023-08-24T02:04:29;8.50;;;4.73;;
4831;SDS011;2430;51.322;7.864;2023-08-24T02:06:59;6.20;;;5.60;;
4831;SDS011;2430;51.322;7.864;2023-08-24T02:09:26;7.90;;;5.07;;
4831;SDS011;2430;51.322;7.864;2023-08-24T02:11:54;13.03;;;5.30;;
4831;SDS011;2430;51.322;7.864;2023-08-24T02:14:21;5.77;;;5.10;;
4831;SDS011;2430;51.322;7.864;2023-08-24T02:16:48;7.27;;;5.07;;
4831;SDS011;2430;51.322;7.864;2023-08-24T02:19:16;7.10;;;4.60;;
4831;SDS011;2430;51.322;7.864;2023-08-24T02:21:43;8.60;;;5.43;;
4831;SDS011;2430;51.322;7.864;2023-08-24T02:24:10;9.60;;;5.33;;
4831;SDS011;2430;51.322;7.864;2023-08-24T02:26:37;7.73;;;5.07;;
4831;SDS011;2430;51.322;7.864;2023-08-24T02:29:04;8.10;;;5.40;;
4831;SDS011;2430;51.322;7.864;2023-08-24T02:31:31;7.83;;;5.40;;
4831;SDS011;2430;51.322;7.864;2023-08-24T02:33:58;12.27;;;5.80;;
4831;SDS011;2430;51.322;7.864;2023-08-24T02:36:26;9.00;;;5.47;;
4831;SDS011;2430;51.322;7.864;2023-08-24T02:38:54;6.33;;;4.93;;
4831;SDS011;2430;51.322;7.864;2023-08-24T02:41:21;6.60;;;4.70;;
4831;SDS011;2430;51.322;7.864;2023-08-24T02:43:47;7.57;;;5.63;;
4831;SDS011;2430;51.322;7.864;2023-08-24T02:46:15;9.73;;;5.47;;
4831;SDS011;2430;51.322;7.864;2023-08-24T02:48:43;8.30;;;5.80;;
4831;SDS011;2430;51.322;7.864;2023-08-24T02:51:11;7.53;;;5.33;;
4831;SDS011;2430;51.322;7.864;2023-08-24T02:53:40;9.63;;;5.30;;
4831;SDS011;2430;51.322;7.864;2023-08-24T02:56:07;8.47;;;6.00;;
4831;SDS011;2430;51.322;7.864;2023-08-24T02:58:35;7.60;;;5.30;;
4831;SDS011;2430;51.322;7.864;2023-08-24T03:01:04;7.60;;;5.07;;
4831;SDS011;2430;51.322;7.864;2023-08-24T03:03:31;10.73;;;4.87;;
4831;SDS011;2430;51.322;7.864;2023-08-24T03:05:59;9.53;;;5.83;;
4831;SDS011;2430;51.322;7.864;2023-08-24T03:08:27;8.90;;;5.40;;
4831;SDS011;2430;51.322;7.864;2023-08-24T03:10:55;13.07;;;5.53;;
4831;SDS011;2430;51.322;7.864;2023-08-24T03:13:22;10.63;;;5.53;;
4831;SDS011;2430;51.322;7.864;2023-08-24T03:15:49;8.80;;;5.70;;
4831;SDS011;2430;51.322;7.864;2023-08-24T03:18:17;11.63;;;5.73;;
4831;SDS011;2430;51.322;7.864;2023-08-24T03:20:44;9.07;;;5.53;;
4831;SDS011;2430;51.322;7.864;2023-08-24T03:23:11;6.07;;;4.97;;
4831;SDS011;2430;51.322;7.864;2023-08-24T03:25:39;6.97;;;5.37;;
4831;SDS011;2430;51.322;7.864;2023-08-24T03:28:08;11.33;;;5.87;;
4831;SDS011;2430;51.322;7.864;2023-08-24T03:30:35;6.47;;;5.30;;
4831;SDS011;2430;51.322;7.864;2023-08-24T03:33:02;7.60;;;5.57;;
4831;SDS011;2430;51.322;7.864;2023-08-24T03:35:30;11.03;;;5.20;;
4831;SDS011;2430;51.322;7.864;2023-08-24T03:37:57;7.23;;;5.43;;
4831;SDS011;2430;51.322;7.864;2023-08-24T03:40:24;7.77;;;5.37;;
4831;SDS011;2430;51.322;7.864;2023-08-24T03:42:51;8.20;;;5.60;;
4831;SDS011;2430;51.322;7.864;2023-08-24T03:45:19;7.60;;;5.93;;
4831;SDS011;2430;51.322;7.864;2023-08-24T03:47:46;7.30;;;6.07;;
4831;SDS011;2430;51.322;7.864;2023-08-24T03:50:12;9.00;;;5.33;;
4831;SDS011;2430;51.322;7.864;2023-08-24T03:52:39;11.67;;;6.50;;
4831;SDS011;2430;51.322;7.864;2023-08-24T03:55:06;10.93;;;6.50;;
4831;SDS011;2430;51.322;7.864;2023-08-24T03:57:32;8.27;;;5.67;;
4831;SDS011;2430;51.322;7.864;2023-08-24T03:59:59;13.27;;;6.73;;
4831;SDS011;2430;51.322;7.864;2023-08-24T04:02:27;8.80;;;5.50;;
4831;SDS011;2430;51.322;7.864;2023-08-24T04:04:54;15.13;;;6.47;;
4831;SDS011;2430;51.322;7.864;2023-08-24T04:07:20;12.90;;;6.20;;
4831;SDS011;2430;51.322;7.864;2023-08-24T04:09:46;8.37;;;5.80;;
4831;SDS011;2430;51.322;7.864;2023-08-24T04:12:13;14.57;;;6.20;;
4831;SDS011;2430;51.322;7.864;2023-08-24T04:14:39;7.50;;;5.37;;
4831;SDS011;2430;51.322;7.864;2023-08-24T04:17:06;8.47;;;6.40;;
4831;SDS011;2430;51.322;7.864;2023-08-24T04:19:35;7.73;;;5.90;;
4831;SDS011;2430;51.322;7.864;2023-08-24T04:22:04;9.63;;;6.00;;
4831;SDS011;2430;51.322;7.864;2023-08-24T04:24:30;8.90;;;6.40;;
4831;SDS011;2430;51.322;7.864;2023-08-24T04:26:57;7.33;;;5.93;;
4831;SDS011;2430;51.322;7.864;2023-08-24T04:29:23;11.13;;;6.57;;
4831;SDS011;2430;51.322;7.864;2023-08-24T04:31:50;8.93;;;6.00;;
4831;SDS011;2430;51.322;7.864;2023-08-24T04:34:16;9.47;;;6.20;;
4831;SDS011;2430;51.322;7.864;2023-08-24T04:36:44;12.23;;;6.40;;
4831;SDS011;2430;51.322;7.864;2023-08-24T04:39:10;7.40;;;5.70;;
4831;SDS011;2430;51.322;7.864;2023-08-24T04:41:37;8.17;;;5.93;;
4831;SDS011;2430;51.322;7.864;2023-08-24T04:44:04;8.50;;;6.27;;
4831;SDS011;2430;51.322;7.864;2023-08-24T04:46:32;9.53;;;6.37;;
4831;SDS011;2430;51.322;7.864;2023-08-24T04:48:59;12.67;;;6.27;;
4831;SDS011;2430;51.322;7.864;2023-08-24T04:51:25;7.53;;;6.13;;
4831;SDS011;2430;51.322;7.864;2023-08-24T04:53:54;6.87;;;6.00;;
4831;SDS011;2430;51.322;7.864;2023-08-24T04:56:21;10.00;;;6.60;;
4831;SDS011;2430;51.322;7.864;2023-08-24T04:58:53;9.30;;;5.80;;
4831;SDS011;2430;51.322;7.864;2023-08-24T05:01:21;11.47;;;6.20;;
4831;SDS011;2430;51.322;7.864;2023-08-24T05:03:48;9.43;;;5.83;;
4831;SDS011;2430;51.322;7.864;2023-08-24T05:06:15;6.83;;;5.93;;
4831;SDS011;2430;51.322;7.864;2023-08-24T05:08:42;6.50;;;5.80;;
4831;SDS011;2430;51.322;7.864;2023-08-24T05:11:13;10.80;;;6.00;;
4831;SDS011;2430;51.322;7.864;2023-08-24T05:13:40;8.70;;;6.70;;
4831;SDS011;2430;51.322;7.864;2023-08-24T05:16:07;7.07;;;5.90;;
4831;SDS011;2430;51.322;7.864;2023-08-24T05:18:34;8.90;;;6.27;;
4831;SDS011;2430;51.322;7.864;2023-08-24T05:21:04;10.23;;;7.00;;
4831;SDS011;2430;51.322;7.864;2023-08-24T05:23:31;8.97;;;5.80;;
4831;SDS011;2430;51.322;7.864;2023-08-24T05:25:57;7.83;;;5.87;;
4831;SDS011;2430;51.322;7.864;2023-08-24T05:28:25;7.13;;;5.77;;
4831;SDS011;2430;51.322;7.864;2023-08-24T05:30:55;8.80;;;6.30;;
4831;SDS011;2430;51.322;7.864;2023-08-24T05:33:24;7.47;;;6.30;;
4831;SDS011;2430;51.322;7.864;2023-08-24T05:35:51;7.50;;;6.17;;
4831;SDS011;2430;51.322;7.864;2023-08-24T05:38:18;9.90;;;7.07;;
4831;SDS011;2430;51.322;7.864;2023-08-24T05:40:46;8.73;;;7.03;;
4831;SDS011;2430;51.322;7.864;2023-08-24T05:43:13;12.57;;;7.80;;
4831;SDS011;2430;51.322;7.864;2023-08-24T05:45:43;10.90;;;7.30;;
4831;SDS011;2430;51.322;7.864;2023-08-24T05:48:11;11.13;;;7.20;;
4831;SDS011;2430;51.322;7.864;2023-08-24T05:50:42;11.13;;;7.53;;
4831;SDS011;2430;51.322;7.864;2023-08-24T05:53:08;8.33;;;6.00;;
4831;SDS011;2430;51.322;7.864;2023-08-24T05:55:38;7.23;;;6.43;;
4831;SDS011;2430;51.322;7.864;2023-08-24T05:58:04;10.60;;;7.50;;
4831;SDS011;2430;51.322;7.864;2023-08-24T06:00:31;11.47;;;8.00;;
4831;SDS011;2430;51.322;7.864;2023-08-24T06:02:59;10.37;;;8.23;;
4831;SDS011;2430;51.322;7.864;2023-08-24T06:05:29;11.53;;;7.80;;
4831;SDS011;2430;51.322;7.864;2023-08-24T06:07:55;11.40;;;8.03;;
4831;SDS011;2430;51.322;7.864;2023-08-24T06:10:22;12.07;;;7.10;;
4831;SDS011;2430;51.322;7.864;2023-08-24T06:12:49;8.90;;;6.50;;
4831;SDS011;2430;51.322;7.864;2023-08-24T06:15:15;10.83;;;6.97;;
4831;SDS011;2430;51.322;7.864;2023-08-24T06:17:44;9.47;;;7.40;;
4831;SDS011;2430;51.322;7.864;2023-08-24T06:20:14;11.37;;;8.13;;
4831;SDS011;2430;51.322;7.864;2023-08-24T06:22:40;10.53;;;8.00;;
4831;SDS011;2430;51.322;7.864;2023-08-24T06:25:08;10.07;;;7.93;;
4831;SDS011;2430;51.322;7.864;2023-08-24T06:27:36;13.17;;;7.70;;
4831;SDS011;2430;51.322;7.864;2023-08-24T06:30:03;11.10;;;7.27;;
4831;SDS011;2430;51.322;7.864;2023-08-24T06:32:30;12.53;;;8.40;;
4831;SDS011;2430;51.322;7.864;2023-08-24T06:34:56;11.63;;;7.57;;
4831;SDS011;2430;51.322;7.864;2023-08-24T06:37:25;10.67;;;7.90;;
4831;SDS011;2430;51.322;7.864;2023-08-24T06:39:51;12.87;;;7.60;;
4831;SDS011;2430;51.322;7.864;2023-08-24T06:42:18;10.93;;;7.93;;
4831;SDS011;2430;51.322;7.864;2023-08-24T06:44:44;10.87;;;8.20;;
4831;SDS011;2430;51.322;7.864;2023-08-24T06:47:11;12.60;;;8.97;;
4831;SDS011;2430;51.322;7.864;2023-08-24T06:49:37;13.47;;;8.23;;
4831;SDS011;2430;51.322;7.864;2023-08-24T06:52:04;11.50;;;7.77;;
4831;SDS011;2430;51.322;7.864;2023-08-24T06:54:32;12.47;;;8.50;;
4831;SDS011;2430;51.322;7.864;2023-08-24T06:56:59;11.50;;;8.30;;
4831;SDS011;2430;51.322;7.864;2023-08-24T06:59:25;12.70;;;8.73;;
4831;SDS011;2430;51.322;7.864;2023-08-24T07:01:52;10.30;;;7.67;;
4831;SDS011;2430;51.322;7.864;2023-08-24T07:04:21;9.30;;;7.23;;
4831;SDS011;2430;51.322;7.864;2023-08-24T07:06:47;12.80;;;8.10;;
4831;SDS011;2430;51.322;7.864;2023-08-24T07:09:14;17.27;;;7.30;;
4831;SDS011;2430;51.322;7.864;2023-08-24T07:11:45;11.00;;;7.10;;
4831;SDS011;2430;51.322;7.864;2023-08-24T07:14:11;10.90;;;8.17;;
4831;SDS011;2430;51.322;7.864;2023-08-24T07:16:38;14.40;;;7.53;;
4831;SDS011;2430;51.322;7.864;2023-08-24T07:19:04;15.60;;;6.47;;
4831;SDS011;2430;51.322;7.864;2023-08-24T07:21:31;8.60;;;6.37;;
4831;SDS011;2430;51.322;7.864;2023-08-24T07:23:57;9.73;;;6.43;;
4831;SDS011;2430;51.322;7.864;2023-08-24T07:26:24;11.40;;;5.00;;
4831;SDS011;2430;51.322;7.864;2023-08-24T07:28:53;8.53;;;4.87;;
4831;SDS011;2430;51.322;7.864;2023-08-24T07:31:19;7.57;;;5.50;;
4831;SDS011;2430;51.322;7.864;2023-08-24T07:33:46;10.93;;;5.23;;
4831;SDS011;2430;51.322;7.864;2023-08-24T07:36:12;8.40;;;5.47;;
4831;SDS011;2430;51.322;7.864;2023-08-24T07:38:39;9.50;;;4.93;;
4831;SDS011;2430;51.322;7.864;2023-08-24T07:41:06;11.90;;;4.80;;
4831;SDS011;2430;51.322;7.864;2023-08-24T07:43:34;9.27;;;4.77;;
4831;SDS011;2430;51.322;7.864;2023-08-24T07:46:02;10.77;;;4.00;;
4831;SDS011;2430;51.322;7.864;2023-08-24T07:48:29;5.57;;;4.83;;
4831;SDS011;2430;51.322;7.864;2023-08-24T07:50:55;11.40;;;4.27;;
4831;SDS011;2430;51.322;7.864;2023-08-24T07:53:26;6.77;;;4.00;;
4831;SDS011;2430;51.322;7.864;2023-08-24T07:55:53;5.40;;;3.13;;
4831;SDS011;2430;51.322;7.864;2023-08-24T07:58:21;4.77;;;3.30;;
4831;SDS011;2430;51.322;7.864;2023-08-24T08:00:49;9.20;;;3.77;;
4831;SDS011;2430;51.322;7.864;2023-08-24T08:03:17;4.70;;;3.27;;
4831;SDS011;2430;51.322;7.864;2023-08-24T08:05:43;3.93;;;2.77;;
4831;SDS011;2430;51.322;7.864;2023-08-24T08:08:10;3.17;;;2.73;;
4831;SDS011;2430;51.322;7.864;2023-08-24T08:10:36;5.10;;;2.70;;
4831;SDS011;2430;51.322;7.864;2023-08-24T08:13:03;6.40;;;2.83;;
4831;SDS011;2430;51.322;7.864;2023-08-24T08:15:30;5.13;;;2.80;;
4831;SDS011;2430;51.322;7.864;2023-08-24T08:17:56;3.53;;;2.87;;
4831;SDS011;2430;51.322;7.864;2023-08-24T08:20:25;4.03;;;2.47;;
4831;SDS011;2430;51.322;7.864;2023-08-24T08:22:51;13.47;;;2.67;;
4831;SDS011;2430;51.322;7.864;2023-08-24T08:25:17;5.00;;;3.00;;
4831;SDS011;2430;51.322;7.864;2023-08-24T08:27:44;2.87;;;2.40;;
4831;SDS011;2430;51.322;7.864;2023-08-24T08:30:14;4.53;;;2.50;;
4831;SDS011;2430;51.322;7.864;2023-08-24T08:32:40;7.37;;;3.23;;
4831;SDS011;2430;51.322;7.864;2023-08-24T08:35:07;3.67;;;2.87;;
4831;SDS011;2430;51.322;7.864;2023-08-24T08:37:35;3.57;;;2.53;;
4831;SDS011;2430;51.322;7.864;2023-08-24T08:40:02;8.27;;;2.00;;
4831;SDS011;2430;51.322;7.864;2023-08-24T08:42:31;3.80;;;2.47;;
4831;SDS011;2430;51.322;7.864;2023-08-24T08:44:57;4.47;;;2.40;;
4831;SDS011;2430;51.322;7.864;2023-08-24T08:47:28;1.90;;;1.63;;
4831;SDS011;2430;51.322;7.864;2023-08-24T08:49:54;3.03;;;2.10;;
4831;SDS011;2430;51.322;7.864;2023-08-24T08:52:21;5.10;;;2.30;;
4831;SDS011;2430;51.322;7.864;2023-08-24T08:54:49;3.80;;;2.40;;
4831;SDS011;2430;51.322;7.864;2023-08-24T08:57:15;5.83;;;2.37;;
4831;SDS011;2430;51.322;7.864;2023-08-24T08:59:42;4.63;;;2.17;;
4831;SDS011;2430;51.322;7.864;2023-08-24T09:02:09;2.57;;;2.07;;
4831;SDS011;2430;51.322;7.864;2023-08-24T09:04:43;4.80;;;2.20;;
4831;SDS011;2430;51.322;7.864;2023-08-24T09:07:10;6.30;;;2.23;;
4831;SDS011;2430;51.322;7.864;2023-08-24T09:09:37;4.90;;;2.10;;
4831;SDS011;2430;51.322;7.864;2023-08-24T09:12:06;7.80;;;2.07;;
4831;SDS011;2430;51.322;7.864;2023-08-24T09:14:33;3.93;;;2.17;;
4831;SDS011;2430;51.322;7.864;2023-08-24T09:17:03;4.93;;;1.90;;
4831;SDS011;2430;51.322;7.864;2023-08-24T09:19:30;2.57;;;2.37;;
4831;SDS011;2430;51.322;7.864;2023-08-24T09:22:00;2.80;;;2.20;;
4831;SDS011;2430;51.322;7.864;2023-08-24T09:24:30;2.30;;;1.90;;
4831;SDS011;2430;51.322;7.864;2023-08-24T09:26:57;4.80;;;1.87;;
4831;SDS011;2430;51.322;7.864;2023-08-24T09:29:25;4.73;;;2.10;;
4831;SDS011;2430;51.322;7.864;2023-08-24T09:31:54;2.83;;;2.40;;
4831;SDS011;2430;51.322;7.864;2023-08-24T09:34:22;5.40;;;2.43;;
4831;SDS011;2430;51.322;7.864;2023-08-24T09:36:51;3.03;;;2.37;;
4831;SDS011;2430;51.322;7.864;2023-08-24T09:39:18;6.43;;;2.60;;
4831;SDS011;2430;51.322;7.864;2023-08-24T09:41:45;4.63;;;1.73;;
4831;SDS011;2430;51.322;7.864;2023-08-24T09:44:12;2.83;;;1.90;;
4831;SDS011;2430;51.322;7.864;2023-08-24T09:46:40;2.73;;;2.00;;
4831;SDS011;2430;51.322;7.864;2023-08-24T09:49:10;4.70;;;2.00;;
4831;SDS011;2430;51.322;7.864;2023-08-24T09:51:37;4.63;;;2.23;;
4831;SDS011;2430;51.322;7.864;2023-08-24T09:54:06;3.73;;;2.30;;
4831;SDS011;2430;51.322;7.864;2023-08-24T09:56:40;2.97;;;1.90;;
4831;SDS011;2430;51.322;7.864;2023-08-24T09:59:13;4.60;;;2.10;;
4831;SDS011;2430;51.322;7.864;2023-08-24T10:01:44;2.67;;;2.00;;
4831;SDS011;2430;51.322;7.864;2023-08-24T10:04:12;3.33;;;2.17;;
4831;SDS011;2430;51.322;7.864;2023-08-24T10:06:39;4.23;;;2.03;;
4831;SDS011;2430;51.322;7.864;2023-08-24T10:09:06;3.00;;;2.20;;
4831;SDS011;2430;51.322;7.864;2023-08-24T10:11:34;4.43;;;2.00;;
4831;SDS011;2430;51.322;7.864;2023-08-24T10:14:04;4.47;;;1.70;;
4831;SDS011;2430;51.322;7.864;2023-08-24T10:16:33;1.80;;;1.70;;
4831;SDS011;2430;51.322;7.864;2023-08-24T10:19:01;11.90;;;2.10;;
4831;SDS011;2430;51.322;7.864;2023-08-24T10:21:28;7.70;;;2.13;;
4831;SDS011;2430;51.322;7.864;2023-08-24T10:23:54;3.60;;;2.40;;
4831;SDS011;2430;51.322;7.864;2023-08-24T10:26:22;5.83;;;2.20;;
4831;SDS011;2430;51.322;7.864;2023-08-24T10:28:50;3.47;;;1.90;;
4831;SDS011;2430;51.322;7.864;2023-08-24T10:31:16;3.77;;;1.93;;
4831;SDS011;2430;51.322;7.864;2023-08-24T10:33:44;6.07;;;2.50;;
4831;SDS011;2430;51.322;7.864;2023-08-24T10:36:13;3.77;;;1.97;;
4831;SDS011;2430;51.322;7.864;2023-08-24T10:38:43;6.43;;;2.20;;
4831;SDS011;2430;51.322;7.864;2023-08-24T10:41:09;2.20;;;1.90;;
4831;SDS011;2430;51.322;7.864;2023-08-24T10:43:39;5.23;;;1.93;;
4831;SDS011;2430;51.322;7.864;2023-08-24T10:46:11;2.47;;;2.10;;
4831;SDS011;2430;51.322;7.864;2023-08-24T10:51:20;2.47;;;2.10;;
4831;SDS011;2430;51.322;7.864;2023-08-24T10:53:51;3.83;;;2.10;;
4831;SDS011;2430;51.322;7.864;2023-08-24T10:56:18;2.20;;;2.00;;
4831;SDS011;2430;51.322;7.864;2023-08-24T10:58:45;3.00;;;1.87;;
4831;SDS011;2430;51.322;7.864;2023-08-24T11:01:15;4.60;;;1.87;;
4831;SDS011;2430;51.322;7.864;2023-08-24T11:03:48;9.67;;;2.00;;
4831;SDS011;2430;51.322;7.864;2023-08-24T11:06:18;2.33;;;2.03;;
4831;SDS011;2430;51.322;7.864;2023-08-24T11:08:47;3.40;;;2.03;;
4831;SDS011;2430;51.322;7.864;2023-08-24T11:11:19;2.47;;;1.80;;
4831;SDS011;2430;51.322;7.864;2023-08-24T11:16:38;6.20;;;2.23;;
4831;SDS011;2430;51.322;7.864;2023-08-24T11:19:04;4.17;;;2.00;;
4831;SDS011;2430;51.322;7.864;2023-08-24T11:21:32;2.30;;;2.00;;
4831;SDS011;2430;51.322;7.864;2023-08-24T11:24:00;2.60;;;1.93;;
4831;SDS011;2430;51.322;7.864;2023-08-24T11:26:29;2.23;;;2.03;;
4831;SDS011;2430;51.322;7.864;2023-08-24T11:28:55;3.60;;;1.70;;
4831;SDS011;2430;51.322;7.864;2023-08-24T11:31:25;2.33;;;2.13;;
4831;SDS011;2430;51.322;7.864;2023-08-24T11:33:53;2.57;;;1.90;;
4831;SDS011;2430;51.322;7.864;2023-08-24T11:36:23;5.73;;;1.90;;
4831;SDS011;2430;51.322;7.864;2023-08-24T11:38:51;2.63;;;2.10;;
4831;SDS011;2430;51.322;7.864;2023-08-24T11:41:20;5.47;;;2.33;;
4831;SDS011;2430;51.322;7.864;2023-08-24T11:43:47;4.63;;;2.10;;
4831;SDS011;2430;51.322;7.864;2023-08-24T11:46:15;5.20;;;1.90;;
4831;SDS011;2430;51.322;7.864;2023-08-24T11:48:42;2.37;;;1.77;;
4831;SDS011;2430;51.322;7.864;2023-08-24T11:51:09;4.17;;;2.23;;
4831;SDS011;2430;51.322;7.864;2023-08-24T11:53:37;2.30;;;1.70;;
4831;SDS011;2430;51.322;7.864;2023-08-24T11:56:03;4.87;;;1.60;;
4831;SDS011;2430;51.322;7.864;2023-08-24T11:58:32;6.60;;;2.27;;
4831;SDS011;2430;51.322;7.864;2023-08-24T12:00:58;3.20;;;1.83;;
4831;SDS011;2430;51.322;7.864;2023-08-24T12:03:25;3.70;;;2.10;;
4831;SDS011;2430;51.322;7.864;2023-08-24T12:05:52;7.83;;;3.00;;
4831;SDS011;2430;51.322;7.864;2023-08-24T12:08:18;4.93;;;2.20;;
4831;SDS011;2430;51.322;7.864;2023-08-24T12:10:45;5.23;;;2.60;;
4831;SDS011;2430;51.322;7.864;2023-08-24T12:13:11;4.33;;;2.10;;
4831;SDS011;2430;51.322;7.864;2023-08-24T12:15:40;5.47;;;2.50;;
4831;SDS011;2430;51.322;7.864;2023-08-24T12:18:09;3.03;;;2.00;;
4831;SDS011;2430;51.322;7.864;2023-08-24T12:20:39;6.53;;;2.00;;
4831;SDS011;2430;51.322;7.864;2023-08-24T12:23:06;3.10;;;1.73;;
4831;SDS011;2430;51.322;7.864;2023-08-24T12:25:35;3.67;;;2.20;;
4831;SDS011;2430;51.322;7.864;2023-08-24T12:28:08;3.13;;;2.13;;
4831;SDS011;2430;51.322;7.864;2023-08-24T12:30:46;7.27;;;2.70;;
4831;SDS011;2430;51.322;7.864;2023-08-24T12:33:22;3.97;;;2.13;;
4831;SDS011;2430;51.322;7.864;2023-08-24T12:35:49;5.90;;;2.40;;
4831;SDS011;2430;51.322;7.864;2023-08-24T12:38:16;4.90;;;2.20;;
4831;SDS011;2430;51.322;7.864;2023-08-24T12:40:42;3.50;;;2.30;;
4831;SDS011;2430;51.322;7.864;2023-08-24T12:43:09;7.77;;;2.20;;
4831;SDS011;2430;51.322;7.864;2023-08-24T12:45:35;6.77;;;2.57;;
4831;SDS011;2430;51.322;7.864;2023-08-24T12:48:04;2.53;;;2.10;;
4831;SDS011;2430;51.322;7.864;2023-08-24T12:50:32;3.60;;;2.57;;
4831;SDS011;2430;51.322;7.864;2023-08-24T12:52:58;3.20;;;2.23;;
4831;SDS011;2430;51.322;7.864;2023-08-24T12:55:31;2.57;;;2.37;;
4831;SDS011;2430;51.322;7.864;2023-08-24T12:57:58;3.20;;;2.40;;
4831;SDS011;2430;51.322;7.864;2023-08-24T13:00:24;3.50;;;2.20;;
4831;SDS011;2430;51.322;7.864;2023-08-24T13:02:52;3.23;;;2.20;;
4831;SDS011;2430;51.322;7.864;2023-08-24T13:05:20;4.93;;;2.10;;
4831;SDS011;2430;51.322;7.864;2023-08-24T13:07:46;3.43;;;2.00;;
4831;SDS011;2430;51.322;7.864;2023-08-24T13:10:13;6.90;;;2.33;;
4831;SDS011;2430;51.322;7.864;2023-08-24T13:12:39;3.70;;;1.77;;
4831;SDS011;2430;51.322;7.864;2023-08-24T13:15:09;2.70;;;1.70;;
4831;SDS011;2430;51.322;7.864;2023-08-24T13:17:36;8.00;;;2.00;;
4831;SDS011;2430;51.322;7.864;2023-08-24T13:20:03;4.00;;;2.10;;
4831;SDS011;2430;51.322;7.864;2023-08-24T13:22:31;8.97;;;2.33;;
4831;SDS011;2430;51.322;7.864;2023-08-24T13:24:57;3.90;;;2.20;;
4831;SDS011;2430;51.322;7.864;2023-08-24T13:27:24;5.90;;;2.10;;
4831;SDS011;2430;51.322;7.864;2023-08-24T13:29:50;3.33;;;1.70;;
4831;SDS011;2430;51.322;7.864;2023-08-24T13:32:17;5.57;;;1.97;;
4831;SDS011;2430;51.322;7.864;2023-08-24T13:34:45;6.50;;;2.27;;
4831;SDS011;2430;51.322;7.864;2023-08-24T13:37:11;8.70;;;2.00;;
4831;SDS011;2430;51.322;7.864;2023-08-24T13:39:39;4.90;;;2.10;;
4831;SDS011;2430;51.322;7.864;2023-08-24T13:42:06;6.60;;;2.27;;
4831;SDS011;2430;51.322;7.864;2023-08-24T13:44:32;5.40;;;1.90;;
4831;SDS011;2430;51.322;7.864;2023-08-24T13:46:59;5.00;;;2.40;;
4831;SDS011;2430;51.322;7.864;2023-08-24T13:49:25;4.57;;;2.53;;
4831;SDS011;2430;51.322;7.864;2023-08-24T13:51:52;4.63;;;2.47;;
4831;SDS011;2430;51.322;7.864;2023-08-24T13:54:19;6.37;;;2.30;;
4831;SDS011;2430;51.322;7.864;2023-08-24T13:56:48;5.80;;;2.20;;
4831;SDS011;2430;51.322;7.864;2023-08-24T13:59:15;4.07;;;2.20;;
4831;SDS011;2430;51.322;7.864;2023-08-24T14:01:42;5.60;;;2.40;;
4831;SDS011;2430;51.322;7.864;2023-08-24T14:04:08;4.37;;;2.57;;
4831;SDS011;2430;51.322;7.864;2023-08-24T14:06:35;5.70;;;2.20;;
4831;SDS011;2430;51.322;7.864;2023-08-24T14:09:03;5.97;;;2.30;;
4831;SDS011;2430;51.322;7.864;2023-08-24T14:11:30;4.50;;;2.60;;
4831;SDS011;2430;51.322;7.864;2023-08-24T14:13:58;4.90;;;2.20;;
4831;SDS011;2430;51.322;7.864;2023-08-24T14:16:24;4.23;;;2.20;;
4831;SDS011;2430;51.322;7.864;2023-08-24T14:18:51;8.40;;;2.50;;
4831;SDS011;2430;51.322;7.864;2023-08-24T14:21:18;4.13;;;2.80;;
4831;SDS011;2430;51.322;7.864;2023-08-24T14:23:45;5.80;;;2.30;;
4831;SDS011;2430;51.322;7.864;2023-08-24T14:26:11;6.23;;;2.20;;
4831;SDS011;2430;51.322;7.864;2023-08-24T14:28:47;3.40;;;2.30;;
4831;SDS011;2430;51.322;7.864;2023-08-24T14:31:16;4.83;;;2.83;;
4831;SDS011;2430;51.322;7.864;2023-08-24T14:33:42;6.23;;;2.27;;
4831;SDS011;2430;51.322;7.864;2023-08-24T14:36:09;9.60;;;2.27;;
4831;SDS011;2430;51.322;7.864;2023-08-24T14:38:37;6.83;;;2.80;;
4831;SDS011;2430;51.322;7.864;2023-08-24T14:41:04;6.83;;;2.50;;
4831;SDS011;2430;51.322;7.864;2023-08-24T14:43:31;8.10;;;3.03;;
4831;SDS011;2430;51.322;7.864;2023-08-24T14:45:57;5.90;;;2.60;;
4831;SDS011;2430;51.322;7.864;2023-08-24T14:48:25;6.23;;;2.30;;
4831;SDS011;2430;51.322;7.864;2023-08-24T14:50:52;5.13;;;2.70;;
4831;SDS011;2430;51.322;7.864;2023-08-24T14:53:19;4.27;;;2.17;;
4831;SDS011;2430;51.322;7.864;2023-08-24T14:55:45;3.90;;;2.57;;
4831;SDS011;2430;51.322;7.864;2023-08-24T14:58:12;8.20;;;2.47;;
4831;SDS011;2430;51.322;7.864;2023-08-24T15:00:39;2.80;;;1.93;;
4831;SDS011;2430;51.322;7.864;2023-08-24T15:03:05;8.53;;;2.53;;
4831;SDS011;2430;51.322;7.864;2023-08-24T15:05:38;2.60;;;2.30;;
4831;SDS011;2430;51.322;7.864;2023-08-24T15:08:11;3.80;;;2.20;;
4831;SDS011;2430;51.322;7.864;2023-08-24T15:10:38;2.83;;;2.20;;
4831;SDS011;2430;51.322;7.864;2023-08-24T15:13:04;3.00;;;2.07;;
4831;SDS011;2430;51.322;7.864;2023-08-24T15:15:31;4.77;;;2.37;;
4831;SDS011;2430;51.322;7.864;2023-08-24T15:17:58;4.50;;;2.27;;
4831;SDS011;2430;51.322;7.864;2023-08-24T15:20:24;7.10;;;2.57;;